sensor_id;sensor_type;location;lat;lon;timestamp;pressure;altitude;pressure_sealevel;temperature
11728;BMP180;5920;49.166;8.624;2022-08-05T00:00:18;99929.00;;;28.90
11728;BMP180;5920;49.166;8.624;2022-08-05T00:02:45;99931.00;;;28.90
11728;BMP180;5920;49.166;8.624;2022-08-05T00:05:13;99941.00;;;28.90
11728;BMP180;5920;49.166;8.624;2022-08-05T00:07:39;99946.00;;;28.90
11728;BMP180;5920;49.166;8.624;2022-08-05T00:10:06;99944.00;;;28.90
11728;BMP180;5920;49.166;8.624;2022-08-05T00:12:33;99945.00;;;28.90
11728;BMP180;5920;49.166;8.624;2022-08-05T00:14:59;99942.00;;;29.00
11728;BMP180;5920;49.166;8.624;2022-08-05T00:17:26;99955.00;;;29.00
11728;BMP180;5920;49.166;8.624;2022-08-05T00:19:52;99951.00;;;29.10
11728;BMP180;5920;49.166;8.624;2022-08-05T00:22:20;99952.00;;;29.10
11728;BMP180;5920;49.166;8.624;2022-08-05T00:24:46;99959.00;;;29.10
11728;BMP180;5920;49.166;8.624;2022-08-05T00:27:13;99954.00;;;29.10
11728;BMP180;5920;49.166;8.624;2022-08-05T00:29:39;99958.00;;;29.20
11728;BMP180;5920;49.166;8.624;2022-08-05T00:32:06;99962.00;;;29.20
11728;BMP180;5920;49.166;8.624;2022-08-05T00:34:33;99969.00;;;29.30
11728;BMP180;5920;49.166;8.624;2022-08-05T00:36:59;99969.00;;;29.30
11728;BMP180;5920;49.166;8.624;2022-08-05T00:39:27;99969.00;;;29.40
11728;BMP180;5920;49.166;8.624;2022-08-05T00:41:53;99978.00;;;29.40
11728;BMP180;5920;49.166;8.624;2022-08-05T00:44:20;99982.00;;;29.40
11728;BMP180;5920;49.166;8.624;2022-08-05T00:46:46;99976.00;;;29.40
11728;BMP180;5920;49.166;8.624;2022-08-05T00:49:13;99984.00;;;29.40
11728;BMP180;5920;49.166;8.624;2022-08-05T00:51:43;99972.00;;;29.40
11728;BMP180;5920;49.166;8.624;2022-08-05T00:54:10;99970.00;;;29.50
11728;BMP180;5920;49.166;8.624;2022-08-05T00:56:38;99973.00;;;29.40
11728;BMP180;5920;49.166;8.624;2022-08-05T00:59:05;99971.00;;;29.40
11728;BMP180;5920;49.166;8.624;2022-08-05T01:01:34;99973.00;;;29.40
11728;BMP180;5920;49.166;8.624;2022-08-05T01:04:01;99966.00;;;29.30
11728;BMP180;5920;49.166;8.624;2022-08-05T01:06:27;99960.00;;;29.30
11728;BMP180;5920;49.166;8.624;2022-08-05T01:08:53;99953.00;;;29.20
11728;BMP180;5920;49.166;8.624;2022-08-05T01:11:20;99955.00;;;29.10
11728;BMP180;5920;49.166;8.624;2022-08-05T01:13:51;99959.00;;;29.10
11728;BMP180;5920;49.166;8.624;2022-08-05T01:16:23;99958.00;;;29.20
11728;BMP180;5920;49.166;8.624;2022-08-05T01:18:53;99950.00;;;29.10
11728;BMP180;5920;49.166;8.624;2022-08-05T01:24:08;99944.00;;;29.00
11728;BMP180;5920;49.166;8.624;2022-08-05T01:26:43;99948.00;;;29.00
11728;BMP180;5920;49.166;8.624;2022-08-05T01:29:15;99950.00;;;28.90
11728;BMP180;5920;49.166;8.624;2022-08-05T01:31:42;99942.00;;;28.90
11728;BMP180;5920;49.166;8.624;2022-08-05T01:34:11;99943.00;;;28.80
11728;BMP180;5920;49.166;8.624;2022-08-05T01:36:39;99926.00;;;28.80
11728;BMP180;5920;49.166;8.624;2022-08-05T01:39:07;99928.00;;;28.70
11728;BMP180;5920;49.166;8.624;2022-08-05T01:41:35;99921.00;;;28.60
11728;BMP180;5920;49.166;8.624;2022-08-05T01:44:02;99932.00;;;28.50
11728;BMP180;5920;49.166;8.624;2022-08-05T01:46:32;99951.00;;;28.50
11728;BMP180;5920;49.166;8.624;2022-08-05T01:49:00;99955.00;;;28.50
11728;BMP180;5920;49.166;8.624;2022-08-05T01:51:27;99964.00;;;28.50
11728;BMP180;5920;49.166;8.624;2022-08-05T01:53:55;99944.00;;;28.60
11728;BMP180;5920;49.166;8.624;2022-08-05T01:56:25;99946.00;;;28.60
11728;BMP180;5920;49.166;8.624;2022-08-05T01:58:53;99945.00;;;28.70
11728;BMP180;5920;49.166;8.624;2022-08-05T02:01:19;99937.00;;;28.70
11728;BMP180;5920;49.166;8.624;2022-08-05T02:03:48;99935.00;;;28.70
11728;BMP180;5920;49.166;8.624;2022-08-05T02:06:16;99941.00;;;28.70
11728;BMP180;5920;49.166;8.624;2022-08-05T02:08:43;99946.00;;;28.70
11728;BMP180;5920;49.166;8.624;2022-08-05T02:11:10;99950.00;;;28.80
11728;BMP180;5920;49.166;8.624;2022-08-05T02:13:37;99952.00;;;28.80
11728;BMP180;5920;49.166;8.624;2022-08-05T02:16:06;99947.00;;;28.80
11728;BMP180;5920;49.166;8.624;2022-08-05T02:18:38;99957.00;;;28.80
11728;BMP180;5920;49.166;8.624;2022-08-05T02:21:08;99953.00;;;28.80
11728;BMP180;5920;49.166;8.624;2022-08-05T02:23:37;99953.00;;;28.80
11728;BMP180;5920;49.166;8.624;2022-08-05T02:26:05;99965.00;;;28.90
11728;BMP180;5920;49.166;8.624;2022-08-05T02:28:34;99972.00;;;28.90
11728;BMP180;5920;49.166;8.624;2022-08-05T02:31:03;99980.00;;;28.90
11728;BMP180;5920;49.166;8.624;2022-08-05T02:33:31;99982.00;;;28.90
11728;BMP180;5920;49.166;8.624;2022-08-05T02:36:26;99989.00;;;28.90
11728;BMP180;5920;49.166;8.624;2022-08-05T02:38:53;99986.00;;;28.90
11728;BMP180;5920;49.166;8.624;2022-08-05T02:41:23;99999.00;;;28.90
11728;BMP180;5920;49.166;8.624;2022-08-05T02:43:52;99992.00;;;28.90
11728;BMP180;5920;49.166;8.624;2022-08-05T02:46:20;99993.00;;;28.90
11728;BMP180;5920;49.166;8.624;2022-08-05T02:48:47;99997.00;;;28.90
11728;BMP180;5920;49.166;8.624;2022-08-05T02:51:14;99984.00;;;28.90
11728;BMP180;5920;49.166;8.624;2022-08-05T02:53:45;99981.00;;;28.80
11728;BMP180;5920;49.166;8.624;2022-08-05T02:56:12;99982.00;;;28.60
11728;BMP180;5920;49.166;8.624;2022-08-05T02:58:40;99988.00;;;28.50
11728;BMP180;5920;49.166;8.624;2022-08-05T03:01:08;100003.00;;;28.60
11728;BMP180;5920;49.166;8.624;2022-08-05T03:03:36;99996.00;;;28.60
11728;BMP180;5920;49.166;8.624;2022-08-05T03:06:04;99998.00;;;28.60
11728;BMP180;5920;49.166;8.624;2022-08-05T03:08:31;100000.00;;;28.60
11728;BMP180;5920;49.166;8.624;2022-08-05T03:11:00;99992.00;;;28.60
11728;BMP180;5920;49.166;8.624;2022-08-05T03:13:26;99979.00;;;28.60
11728;BMP180;5920;49.166;8.624;2022-08-05T03:15:53;99962.00;;;28.50
11728;BMP180;5920;49.166;8.624;2022-08-05T03:18:19;99971.00;;;28.50
11728;BMP180;5920;49.166;8.624;2022-08-05T03:20:48;99957.00;;;28.50
11728;BMP180;5920;49.166;8.624;2022-08-05T03:23:14;99937.00;;;28.40
11728;BMP180;5920;49.166;8.624;2022-08-05T03:25:41;99949.00;;;28.40
11728;BMP180;5920;49.166;8.624;2022-08-05T03:28:09;99948.00;;;28.30
11728;BMP180;5920;49.166;8.624;2022-08-05T03:30:35;99944.00;;;28.10
11728;BMP180;5920;49.166;8.624;2022-08-05T03:33:03;99943.00;;;27.90
11728;BMP180;5920;49.166;8.624;2022-08-05T03:35:30;99956.00;;;28.00
11728;BMP180;5920;49.166;8.624;2022-08-05T03:37:57;99977.00;;;28.00
11728;BMP180;5920;49.166;8.624;2022-08-05T03:40:23;99986.00;;;28.00
11728;BMP180;5920;49.166;8.624;2022-08-05T03:42:50;100012.00;;;28.10
11728;BMP180;5920;49.166;8.624;2022-08-05T03:45:18;100032.00;;;28.10
11728;BMP180;5920;49.166;8.624;2022-08-05T03:47:44;100060.00;;;28.20
11728;BMP180;5920;49.166;8.624;2022-08-05T03:50:11;100092.00;;;28.20
11728;BMP180;5920;49.166;8.624;2022-08-05T03:52:45;100094.00;;;28.10
11728;BMP180;5920;49.166;8.624;2022-08-05T03:55:14;100076.00;;;28.10
11728;BMP180;5920;49.166;8.624;2022-08-05T03:57:42;100077.00;;;28.10
11728;BMP180;5920;49.166;8.624;2022-08-05T04:00:11;100077.00;;;28.20
11728;BMP180;5920;49.166;8.624;2022-08-05T04:02:41;100068.00;;;28.20
11728;BMP180;5920;49.166;8.624;2022-08-05T04:05:08;100067.00;;;28.20
11728;BMP180;5920;49.166;8.624;2022-08-05T04:07:35;100077.00;;;28.20
11728;BMP180;5920;49.166;8.624;2022-08-05T04:10:02;100059.00;;;28.20
11728;BMP180;5920;49.166;8.624;2022-08-05T04:12:28;100050.00;;;28.20
11728;BMP180;5920;49.166;8.624;2022-08-05T04:14:55;100074.00;;;28.20
11728;BMP180;5920;49.166;8.624;2022-08-05T04:17:22;100103.00;;;28.20
11728;BMP180;5920;49.166;8.624;2022-08-05T04:19:50;100114.00;;;28.10
11728;BMP180;5920;49.166;8.624;2022-08-05T04:22:17;100128.00;;;28.10
11728;BMP180;5920;49.166;8.624;2022-08-05T04:24:44;100142.00;;;28.00
11728;BMP180;5920;49.166;8.624;2022-08-05T04:27:11;100157.00;;;28.00
11728;BMP180;5920;49.166;8.624;2022-08-05T04:29:38;100147.00;;;27.90
11728;BMP180;5920;49.166;8.624;2022-08-05T04:32:05;100147.00;;;27.90
11728;BMP180;5920;49.166;8.624;2022-08-05T04:34:32;100147.00;;;27.80
11728;BMP180;5920;49.166;8.624;2022-08-05T04:37:00;100163.00;;;27.80
11728;BMP180;5920;49.166;8.624;2022-08-05T04:39:26;100177.00;;;27.80
11728;BMP180;5920;49.166;8.624;2022-08-05T04:41:53;100191.00;;;27.70
11728;BMP180;5920;49.166;8.624;2022-08-05T04:44:19;100192.00;;;27.70
11728;BMP180;5920;49.166;8.624;2022-08-05T04:46:46;100200.00;;;27.70
11728;BMP180;5920;49.166;8.624;2022-08-05T04:49:12;100208.00;;;27.70
11728;BMP180;5920;49.166;8.624;2022-08-05T04:51:39;100217.00;;;27.70
11728;BMP180;5920;49.166;8.624;2022-08-05T04:54:07;100227.00;;;27.70
11728;BMP180;5920;49.166;8.624;2022-08-05T04:56:33;100242.00;;;27.70
11728;BMP180;5920;49.166;8.624;2022-08-05T04:59:00;100244.00;;;27.60
11728;BMP180;5920;49.166;8.624;2022-08-05T05:01:26;100252.00;;;27.60
11728;BMP180;5920;49.166;8.624;2022-08-05T05:03:53;100259.00;;;27.70
11728;BMP180;5920;49.166;8.624;2022-08-05T05:06:19;100277.00;;;27.80
11728;BMP180;5920;49.166;8.624;2022-08-05T05:08:46;100279.00;;;27.80
11728;BMP180;5920;49.166;8.624;2022-08-05T05:11:14;100294.00;;;27.80
11728;BMP180;5920;49.166;8.624;2022-08-05T05:13:41;100290.00;;;27.70
11728;BMP180;5920;49.166;8.624;2022-08-05T05:16:09;100299.00;;;27.70
11728;BMP180;5920;49.166;8.624;2022-08-05T05:18:36;100294.00;;;27.60
11728;BMP180;5920;49.166;8.624;2022-08-05T05:21:04;100293.00;;;27.50
11728;BMP180;5920;49.166;8.624;2022-08-05T05:23:30;100289.00;;;27.50
11728;BMP180;5920;49.166;8.624;2022-08-05T05:25:58;100281.00;;;27.40
11728;BMP180;5920;49.166;8.624;2022-08-05T05:28:28;100277.00;;;27.40
11728;BMP180;5920;49.166;8.624;2022-08-05T05:30:55;100276.00;;;27.40
11728;BMP180;5920;49.166;8.624;2022-08-05T05:33:26;100285.00;;;27.70
11728;BMP180;5920;49.166;8.624;2022-08-05T05:35:52;100272.00;;;27.90
11728;BMP180;5920;49.166;8.624;2022-08-05T05:38:19;100257.00;;;28.20
11728;BMP180;5920;49.166;8.624;2022-08-05T05:40:49;100242.00;;;28.40
11728;BMP180;5920;49.166;8.624;2022-08-05T05:43:16;100239.00;;;28.60
11728;BMP180;5920;49.166;8.624;2022-08-05T05:45:44;100250.00;;;28.90
11728;BMP180;5920;49.166;8.624;2022-08-05T05:48:14;100253.00;;;29.00
11728;BMP180;5920;49.166;8.624;2022-08-05T05:50:42;100255.00;;;28.80
11728;BMP180;5920;49.166;8.624;2022-08-05T05:53:12;100267.00;;;28.60
11728;BMP180;5920;49.166;8.624;2022-08-05T05:55:40;100277.00;;;28.50
11728;BMP180;5920;49.166;8.624;2022-08-05T05:58:09;100283.00;;;28.50
11728;BMP180;5920;49.166;8.624;2022-08-05T06:00:36;100281.00;;;28.40
11728;BMP180;5920;49.166;8.624;2022-08-05T06:03:05;100288.00;;;28.30
11728;BMP180;5920;49.166;8.624;2022-08-05T06:05:34;100294.00;;;28.10
11728;BMP180;5920;49.166;8.624;2022-08-05T06:08:01;100299.00;;;28.00
11728;BMP180;5920;49.166;8.624;2022-08-05T06:10:28;100283.00;;;28.00
11728;BMP180;5920;49.166;8.624;2022-08-05T06:12:55;100263.00;;;27.90
11728;BMP180;5920;49.166;8.624;2022-08-05T06:15:26;100262.00;;;27.80
11728;BMP180;5920;49.166;8.624;2022-08-05T06:17:53;100256.00;;;27.70
11728;BMP180;5920;49.166;8.624;2022-08-05T06:20:21;100258.00;;;27.60
11728;BMP180;5920;49.166;8.624;2022-08-05T06:22:49;100261.00;;;27.60
11728;BMP180;5920;49.166;8.624;2022-08-05T06:25:16;100256.00;;;27.50
11728;BMP180;5920;49.166;8.624;2022-08-05T06:27:43;100250.00;;;27.50
11728;BMP180;5920;49.166;8.624;2022-08-05T06:30:11;100252.00;;;27.50
11728;BMP180;5920;49.166;8.624;2022-08-05T06:32:41;100238.00;;;27.50
11728;BMP180;5920;49.166;8.624;2022-08-05T06:35:08;100247.00;;;27.50
11728;BMP180;5920;49.166;8.624;2022-08-05T06:37:38;100252.00;;;27.60
11728;BMP180;5920;49.166;8.624;2022-08-05T06:40:08;100252.00;;;27.80
11728;BMP180;5920;49.166;8.624;2022-08-05T06:42:36;100256.00;;;27.90
11728;BMP180;5920;49.166;8.624;2022-08-05T06:45:06;100264.00;;;27.90
11728;BMP180;5920;49.166;8.624;2022-08-05T06:47:33;100253.00;;;27.90
11728;BMP180;5920;49.166;8.624;2022-08-05T06:50:01;100248.00;;;28.00
11728;BMP180;5920;49.166;8.624;2022-08-05T06:52:28;100261.00;;;28.30
11728;BMP180;5920;49.166;8.624;2022-08-05T06:54:56;100269.00;;;28.60
11728;BMP180;5920;49.166;8.624;2022-08-05T06:57:24;100269.00;;;28.80
11728;BMP180;5920;49.166;8.624;2022-08-05T06:59:55;100272.00;;;29.00
11728;BMP180;5920;49.166;8.624;2022-08-05T07:02:22;100279.00;;;29.40
11728;BMP180;5920;49.166;8.624;2022-08-05T07:04:50;100269.00;;;29.70
11728;BMP180;5920;49.166;8.624;2022-08-05T07:07:17;100276.00;;;30.00
11728;BMP180;5920;49.166;8.624;2022-08-05T07:09:44;100281.00;;;30.10
11728;BMP180;5920;49.166;8.624;2022-08-05T07:12:13;100292.00;;;30.10
11728;BMP180;5920;49.166;8.624;2022-08-05T07:15:03;100289.00;;;30.30
11728;BMP180;5920;49.166;8.624;2022-08-05T07:17:47;100296.00;;;30.30
11728;BMP180;5920;49.166;8.624;2022-08-05T07:20:14;100302.00;;;30.50
11728;BMP180;5920;49.166;8.624;2022-08-05T07:22:41;100309.00;;;30.80
11728;BMP180;5920;49.166;8.624;2022-08-05T07:25:08;100306.00;;;30.80
11728;BMP180;5920;49.166;8.624;2022-08-05T07:27:37;100307.00;;;30.70
11728;BMP180;5920;49.166;8.624;2022-08-05T07:30:04;100311.00;;;30.80
11728;BMP180;5920;49.166;8.624;2022-08-05T07:32:34;100313.00;;;30.80
11728;BMP180;5920;49.166;8.624;2022-08-05T07:35:06;100313.00;;;30.80
11728;BMP180;5920;49.166;8.624;2022-08-05T07:37:36;100326.00;;;30.80
11728;BMP180;5920;49.166;8.624;2022-08-05T07:40:04;100320.00;;;30.70
11728;BMP180;5920;49.166;8.624;2022-08-05T07:42:34;100317.00;;;30.70
11728;BMP180;5920;49.166;8.624;2022-08-05T07:45:03;100316.00;;;30.80
11728;BMP180;5920;49.166;8.624;2022-08-05T07:47:31;100315.00;;;31.00
11728;BMP180;5920;49.166;8.624;2022-08-05T07:49:58;100309.00;;;31.20
11728;BMP180;5920;49.166;8.624;2022-08-05T07:52:26;100307.00;;;31.30
11728;BMP180;5920;49.166;8.624;2022-08-05T07:54:54;100304.00;;;31.20
11728;BMP180;5920;49.166;8.624;2022-08-05T07:57:21;100302.00;;;31.20
11728;BMP180;5920;49.166;8.624;2022-08-05T07:59:49;100301.00;;;31.20
11728;BMP180;5920;49.166;8.624;2022-08-05T08:02:21;100303.00;;;31.30
11728;BMP180;5920;49.166;8.624;2022-08-05T08:04:52;100302.00;;;31.30
11728;BMP180;5920;49.166;8.624;2022-08-05T08:07:19;100292.00;;;31.50
11728;BMP180;5920;49.166;8.624;2022-08-05T08:09:46;100289.00;;;31.90
11728;BMP180;5920;49.166;8.624;2022-08-05T08:12:14;100294.00;;;32.20
11728;BMP180;5920;49.166;8.624;2022-08-05T08:14:42;100299.00;;;32.40
11728;BMP180;5920;49.166;8.624;2022-08-05T08:17:10;100299.00;;;32.30
11728;BMP180;5920;49.166;8.624;2022-08-05T08:19:38;100294.00;;;32.40
11728;BMP180;5920;49.166;8.624;2022-08-05T08:22:07;100297.00;;;32.40
11728;BMP180;5920;49.166;8.624;2022-08-05T08:24:35;100285.00;;;32.30
11728;BMP180;5920;49.166;8.624;2022-08-05T08:27:03;100282.00;;;32.30
11728;BMP180;5920;49.166;8.624;2022-08-05T08:29:31;100266.00;;;32.50
11728;BMP180;5920;49.166;8.624;2022-08-05T08:32:00;100246.00;;;32.80
11728;BMP180;5920;49.166;8.624;2022-08-05T08:34:28;100229.00;;;33.00
11728;BMP180;5920;49.166;8.624;2022-08-05T08:36:57;100218.00;;;33.20
11728;BMP180;5920;49.166;8.624;2022-08-05T08:39:24;100212.00;;;33.50
11728;BMP180;5920;49.166;8.624;2022-08-05T08:41:53;100203.00;;;33.50
11728;BMP180;5920;49.166;8.624;2022-08-05T08:44:27;100208.00;;;33.60
11728;BMP180;5920;49.166;8.624;2022-08-05T08:46:54;100208.00;;;33.60
11728;BMP180;5920;49.166;8.624;2022-08-05T08:49:22;100185.00;;;33.60
11728;BMP180;5920;49.166;8.624;2022-08-05T08:51:53;100166.00;;;33.50
11728;BMP180;5920;49.166;8.624;2022-08-05T08:54:26;100201.00;;;33.40
11728;BMP180;5920;49.166;8.624;2022-08-05T08:56:53;100189.00;;;33.20
11728;BMP180;5920;49.166;8.624;2022-08-05T08:59:22;100188.00;;;33.00
11728;BMP180;5920;49.166;8.624;2022-08-05T09:01:50;100189.00;;;32.90
11728;BMP180;5920;49.166;8.624;2022-08-05T09:04:18;100191.00;;;32.80
11728;BMP180;5920;49.166;8.624;2022-08-05T09:06:44;100184.00;;;32.70
11728;BMP180;5920;49.166;8.624;2022-08-05T09:09:11;100176.00;;;32.70
11728;BMP180;5920;49.166;8.624;2022-08-05T09:11:38;100179.00;;;32.70
11728;BMP180;5920;49.166;8.624;2022-08-05T09:14:05;100182.00;;;32.70
11728;BMP180;5920;49.166;8.624;2022-08-05T09:16:32;100198.00;;;32.70
11728;BMP180;5920;49.166;8.624;2022-08-05T09:18:58;100205.00;;;32.80
11728;BMP180;5920;49.166;8.624;2022-08-05T09:21:25;100202.00;;;32.80
11728;BMP180;5920;49.166;8.624;2022-08-05T09:24:00;100207.00;;;32.80
11728;BMP180;5920;49.166;8.624;2022-08-05T09:26:27;100202.00;;;32.90
11728;BMP180;5920;49.166;8.624;2022-08-05T09:28:58;100210.00;;;32.90
11728;BMP180;5920;49.166;8.624;2022-08-05T09:31:24;100218.00;;;32.90
11728;BMP180;5920;49.166;8.624;2022-08-05T09:33:51;100212.00;;;33.00
11728;BMP180;5920;49.166;8.624;2022-08-05T09:36:18;100218.00;;;33.20
11728;BMP180;5920;49.166;8.624;2022-08-05T09:38:54;100224.00;;;33.20
11728;BMP180;5920;49.166;8.624;2022-08-05T09:41:21;100225.00;;;33.30
11728;BMP180;5920;49.166;8.624;2022-08-05T09:43:47;100231.00;;;33.30
11728;BMP180;5920;49.166;8.624;2022-08-05T09:46:23;100223.00;;;33.40
11728;BMP180;5920;49.166;8.624;2022-08-05T09:48:51;100228.00;;;33.40
11728;BMP180;5920;49.166;8.624;2022-08-05T09:56:29;100219.00;;;33.70
11728;BMP180;5920;49.166;8.624;2022-08-05T09:58:58;100218.00;;;33.70
11728;BMP180;5920;49.166;8.624;2022-08-05T10:01:26;100220.00;;;33.80
11728;BMP180;5920;49.166;8.624;2022-08-05T10:03:53;100213.00;;;33.80
11728;BMP180;5920;49.166;8.624;2022-08-05T10:06:21;100223.00;;;33.80
11728;BMP180;5920;49.166;8.624;2022-08-05T10:08:48;100216.00;;;33.90
11728;BMP180;5920;49.166;8.624;2022-08-05T10:11:15;100216.00;;;34.00
11728;BMP180;5920;49.166;8.624;2022-08-05T10:13:41;100217.00;;;34.10
11728;BMP180;5920;49.166;8.624;2022-08-05T10:18:51;100218.00;;;34.20
11728;BMP180;5920;49.166;8.624;2022-08-05T10:21:17;100217.00;;;34.20
11728;BMP180;5920;49.166;8.624;2022-08-05T10:23:44;100218.00;;;34.20
11728;BMP180;5920;49.166;8.624;2022-08-05T10:26:11;100221.00;;;34.20
11728;BMP180;5920;49.166;8.624;2022-08-05T10:28:37;100220.00;;;34.20
11728;BMP180;5920;49.166;8.624;2022-08-05T10:31:04;100222.00;;;34.20
11728;BMP180;5920;49.166;8.624;2022-08-05T10:33:31;100216.00;;;34.30
11728;BMP180;5920;49.166;8.624;2022-08-05T10:36:00;100213.00;;;34.30
11728;BMP180;5920;49.166;8.624;2022-08-05T10:38:28;100214.00;;;34.40
11728;BMP180;5920;49.166;8.624;2022-08-05T10:40:57;100224.00;;;34.30
11728;BMP180;5920;49.166;8.624;2022-08-05T10:43:32;100226.00;;;34.30
11728;BMP180;5920;49.166;8.624;2022-08-05T10:46:00;100230.00;;;34.30
11728;BMP180;5920;49.166;8.624;2022-08-05T10:48:27;100222.00;;;34.30
11728;BMP180;5920;49.166;8.624;2022-08-05T10:50:59;100225.00;;;34.30
11728;BMP180;5920;49.166;8.624;2022-08-05T10:53:33;100233.00;;;34.30
11728;BMP180;5920;49.166;8.624;2022-08-05T10:56:01;100238.00;;;34.30
11728;BMP180;5920;49.166;8.624;2022-08-05T10:58:28;100231.00;;;34.30
11728;BMP180;5920;49.166;8.624;2022-08-05T11:00:54;100230.00;;;34.30
11728;BMP180;5920;49.166;8.624;2022-08-05T11:03:21;100230.00;;;34.20
11728;BMP180;5920;49.166;8.624;2022-08-05T11:06:02;100227.00;;;34.20
11728;BMP180;5920;49.166;8.624;2022-08-05T11:08:29;100232.00;;;34.20
11728;BMP180;5920;49.166;8.624;2022-08-05T11:10:56;100235.00;;;34.30
11728;BMP180;5920;49.166;8.624;2022-08-05T11:13:44;100242.00;;;34.30
11728;BMP180;5920;49.166;8.624;2022-08-05T11:16:19;100235.00;;;34.30
11728;BMP180;5920;49.166;8.624;2022-08-05T11:18:46;100242.00;;;34.30
11728;BMP180;5920;49.166;8.624;2022-08-05T11:23:54;100242.00;;;34.30
11728;BMP180;5920;49.166;8.624;2022-08-05T11:26:20;100241.00;;;34.30
11728;BMP180;5920;49.166;8.624;2022-08-05T11:28:49;100242.00;;;34.30
11728;BMP180;5920;49.166;8.624;2022-08-05T11:31:22;100241.00;;;34.30
11728;BMP180;5920;49.166;8.624;2022-08-05T11:33:53;100247.00;;;34.30
11728;BMP180;5920;49.166;8.624;2022-08-05T11:36:20;100241.00;;;34.20
11728;BMP180;5920;49.166;8.624;2022-08-05T11:38:50;100243.00;;;34.20
11728;BMP180;5920;49.166;8.624;2022-08-05T11:41:19;100251.00;;;34.20
11728;BMP180;5920;49.166;8.624;2022-08-05T11:43:53;100250.00;;;34.20
11728;BMP180;5920;49.166;8.624;2022-08-05T11:46:23;100242.00;;;34.20
11728;BMP180;5920;49.166;8.624;2022-08-05T11:48:50;100240.00;;;34.30
11728;BMP180;5920;49.166;8.624;2022-08-05T11:51:16;100242.00;;;34.30
11728;BMP180;5920;49.166;8.624;2022-08-05T11:53:43;100237.00;;;34.40
11728;BMP180;5920;49.166;8.624;2022-08-05T11:56:11;100243.00;;;34.50
11728;BMP180;5920;49.166;8.624;2022-08-05T11:58:38;100231.00;;;34.50
11728;BMP180;5920;49.166;8.624;2022-08-05T12:01:06;100233.00;;;34.50
11728;BMP180;5920;49.166;8.624;2022-08-05T12:03:40;100234.00;;;34.50
11728;BMP180;5920;49.166;8.624;2022-08-05T12:06:07;100237.00;;;34.50
11728;BMP180;5920;49.166;8.624;2022-08-05T12:08:38;100234.00;;;34.50
11728;BMP180;5920;49.166;8.624;2022-08-05T12:11:05;100232.00;;;34.60
11728;BMP180;5920;49.166;8.624;2022-08-05T12:13:33;100229.00;;;34.60
11728;BMP180;5920;49.166;8.624;2022-08-05T12:16:00;100229.00;;;34.60
11728;BMP180;5920;49.166;8.624;2022-08-05T12:18:30;100233.00;;;34.60
11728;BMP180;5920;49.166;8.624;2022-08-05T12:21:07;100235.00;;;34.60
11728;BMP180;5920;49.166;8.624;2022-08-05T12:23:33;100235.00;;;34.60
11728;BMP180;5920;49.166;8.624;2022-08-05T12:26:00;100226.00;;;34.60
11728;BMP180;5920;49.166;8.624;2022-08-05T12:28:30;100227.00;;;34.60
11728;BMP180;5920;49.166;8.624;2022-08-05T12:30:57;100220.00;;;34.60
11728;BMP180;5920;49.166;8.624;2022-08-05T12:33:24;100226.00;;;34.50
11728;BMP180;5920;49.166;8.624;2022-08-05T12:35:53;100225.00;;;34.50
11728;BMP180;5920;49.166;8.624;2022-08-05T12:38:20;100224.00;;;34.50
11728;BMP180;5920;49.166;8.624;2022-08-05T12:40:49;100227.00;;;34.50
11728;BMP180;5920;49.166;8.624;2022-08-05T12:43:15;100228.00;;;34.60
11728;BMP180;5920;49.166;8.624;2022-08-05T12:45:52;100233.00;;;34.60
11728;BMP180;5920;49.166;8.624;2022-08-05T12:48:19;100245.00;;;34.60
11728;BMP180;5920;49.166;8.624;2022-08-05T12:53:29;100249.00;;;34.20
11728;BMP180;5920;49.166;8.624;2022-08-05T12:55:55;100253.00;;;34.20
11728;BMP180;5920;49.166;8.624;2022-08-05T12:58:22;100256.00;;;34.20
11728;BMP180;5920;49.166;8.624;2022-08-05T13:00:49;100261.00;;;34.20
11728;BMP180;5920;49.166;8.624;2022-08-05T13:03:16;100258.00;;;34.10
11728;BMP180;5920;49.166;8.624;2022-08-05T13:05:45;100265.00;;;33.90
11728;BMP180;5920;49.166;8.624;2022-08-05T13:08:12;100270.00;;;33.80
11728;BMP180;5920;49.166;8.624;2022-08-05T13:10:43;100273.00;;;33.70
11728;BMP180;5920;49.166;8.624;2022-08-05T13:13:10;100280.00;;;33.60
11728;BMP180;5920;49.166;8.624;2022-08-05T13:15:38;100286.00;;;33.50
11728;BMP180;5920;49.166;8.624;2022-08-05T13:18:05;100278.00;;;33.50
11728;BMP180;5920;49.166;8.624;2022-08-05T13:20:34;100288.00;;;33.30
11728;BMP180;5920;49.166;8.624;2022-08-05T13:23:01;100290.00;;;33.30
11728;BMP180;5920;49.166;8.624;2022-08-05T13:25:27;100296.00;;;33.20
11728;BMP180;5920;49.166;8.624;2022-08-05T13:27:56;100300.00;;;33.20
11728;BMP180;5920;49.166;8.624;2022-08-05T13:30:23;100292.00;;;33.20
11728;BMP180;5920;49.166;8.624;2022-08-05T13:32:50;100292.00;;;33.10
11728;BMP180;5920;49.166;8.624;2022-08-05T13:35:17;100295.00;;;32.90
11728;BMP180;5920;49.166;8.624;2022-08-05T13:37:44;100292.00;;;32.70
11728;BMP180;5920;49.166;8.624;2022-08-05T13:40:11;100296.00;;;32.60
11728;BMP180;5920;49.166;8.624;2022-08-05T13:42:38;100293.00;;;32.50
11728;BMP180;5920;49.166;8.624;2022-08-05T13:45:07;100290.00;;;32.40
11728;BMP180;5920;49.166;8.624;2022-08-05T13:47:34;100282.00;;;32.40
11728;BMP180;5920;49.166;8.624;2022-08-05T13:50:02;100282.00;;;32.30
11728;BMP180;5920;49.166;8.624;2022-08-05T13:52:30;100273.00;;;32.20
11728;BMP180;5920;49.166;8.624;2022-08-05T13:54:57;100277.00;;;32.20
11728;BMP180;5920;49.166;8.624;2022-08-05T13:57:24;100282.00;;;32.00
11728;BMP180;5920;49.166;8.624;2022-08-05T13:59:51;100286.00;;;32.00
11728;BMP180;5920;49.166;8.624;2022-08-05T14:02:20;100283.00;;;32.00
11728;BMP180;5920;49.166;8.624;2022-08-05T14:04:47;100288.00;;;32.00
11728;BMP180;5920;49.166;8.624;2022-08-05T14:07:32;100274.00;;;32.10
11728;BMP180;5920;49.166;8.624;2022-08-05T14:09:59;100270.00;;;32.10
11728;BMP180;5920;49.166;8.624;2022-08-05T14:12:25;100272.00;;;32.00
11728;BMP180;5920;49.166;8.624;2022-08-05T14:14:52;100267.00;;;31.90
11728;BMP180;5920;49.166;8.624;2022-08-05T14:17:20;100269.00;;;31.70
11728;BMP180;5920;49.166;8.624;2022-08-05T14:19:50;100278.00;;;31.60
11728;BMP180;5920;49.166;8.624;2022-08-05T14:22:17;100269.00;;;31.50
11728;BMP180;5920;49.166;8.624;2022-08-05T14:24:44;100273.00;;;31.60
11728;BMP180;5920;49.166;8.624;2022-08-05T14:27:11;100272.00;;;31.60
11728;BMP180;5920;49.166;8.624;2022-08-05T14:29:38;100264.00;;;31.60
11728;BMP180;5920;49.166;8.624;2022-08-05T14:32:05;100260.00;;;31.70